sensor_id;sensor_type;location;lat;lon;timestamp;pressure;altitude;pressure_sealevel;temperature;humidity
20160;BME280;50187;50.492;12.134;2023-04-07T00:02:27;97674.94;;;20.68;30.51
20160;BME280;50187;50.492;12.134;2023-04-07T00:05:13;97670.41;;;20.69;30.70
20160;BME280;50187;50.492;12.134;2023-04-07T00:07:58;97660.03;;;20.64;30.60
20160;BME280;50187;50.492;12.134;2023-04-07T00:10:43;97668.84;;;20.66;30.50
20160;BME280;50187;50.492;12.134;2023-04-07T00:13:28;97665.28;;;20.66;30.58
20160;BME280;50187;50.492;12.134;2023-04-07T00:16:14;97667.88;;;20.67;30.41
20160;BME280;50187;50.492;12.134;2023-04-07T00:19:00;97657.16;;;20.66;30.35
20160;BME280;50187;50.492;12.134;2023-04-07T00:21:45;97658.88;;;20.67;30.42
20160;BME280;50187;50.492;12.134;2023-04-07T00:24:30;97651.75;;;20.66;30.30
20160;BME280;50187;50.492;12.134;2023-04-07T00:27:19;97658.03;;;20.66;30.45
20160;BME280;50187;50.492;12.134;2023-04-07T00:30:05;97659.03;;;20.65;30.26
20160;BME280;50187;50.492;12.134;2023-04-07T00:32:50;97653.78;;;20.64;30.40
20160;BME280;50187;50.492;12.134;2023-04-07T00:35:35;97651.25;;;20.62;30.47
20160;BME280;50187;50.492;12.134;2023-04-07T00:38:21;97655.50;;;20.65;30.37
20160;BME280;50187;50.492;12.134;2023-04-07T00:41:06;97650.09;;;20.65;30.35
20160;BME280;50187;50.492;12.134;2023-04-07T00:43:51;97650.94;;;20.65;30.34
20160;BME280;50187;50.492;12.134;2023-04-07T00:46:37;97650.25;;;20.63;30.20
20160;BME280;50187;50.492;12.134;2023-04-07T00:49:22;97641.97;;;20.65;30.22
20160;BME280;50187;50.492;12.134;2023-04-07T00:52:09;97639.44;;;20.63;30.09
20160;BME280;50187;50.492;12.134;2023-04-07T00:54:58;97638.41;;;20.64;30.02
20160;BME280;50187;50.492;12.134;2023-04-07T00:57:44;97632.16;;;20.64;30.15
20160;BME280;50187;50.492;12.134;2023-04-07T01:00:33;97640.28;;;20.64;29.94
20160;BME280;50187;50.492;12.134;2023-04-07T01:03:26;97630.31;;;20.64;30.10
20160;BME280;50187;50.492;12.134;2023-04-07T01:06:17;97634.03;;;20.63;30.08
20160;BME280;50187;50.492;12.134;2023-04-07T01:12:09;97627.78;;;20.63;29.97
20160;BME280;50187;50.492;12.134;2023-04-07T01:14:59;97622.38;;;20.63;29.79
20160;BME280;50187;50.492;12.134;2023-04-07T01:18:04;97623.41;;;20.62;29.86
20160;BME280;50187;50.492;12.134;2023-04-07T01:20:55;97616.28;;;20.61;29.75
20160;BME280;50187;50.492;12.134;2023-04-07T01:26:34;97620.00;;;20.59;29.81
20160;BME280;50187;50.492;12.134;2023-04-07T01:29:36;97616.78;;;20.56;29.69
20160;BME280;50187;50.492;12.134;2023-04-07T01:32:22;97615.59;;;20.58;29.71
20160;BME280;50187;50.492;12.134;2023-04-07T01:35:12;97620.00;;;20.59;29.68
20160;BME280;50187;50.492;12.134;2023-04-07T01:37:58;97613.91;;;20.57;29.75
20160;BME280;50187;50.492;12.134;2023-04-07T01:40:44;97621.16;;;20.57;29.83
20160;BME280;50187;50.492;12.134;2023-04-07T01:43:31;97609.53;;;20.56;29.68
20160;BME280;50187;50.492;12.134;2023-04-07T01:46:16;97602.56;;;20.54;29.58
20160;BME280;50187;50.492;12.134;2023-04-07T01:49:02;97605.97;;;20.56;29.77
20160;BME280;50187;50.492;12.134;2023-04-07T01:51:49;97599.34;;;20.50;29.59
20160;BME280;50187;50.492;12.134;2023-04-07T01:54:36;97606.13;;;20.54;29.62
20160;BME280;50187;50.492;12.134;2023-04-07T01:57:21;97603.28;;;20.56;29.57
20160;BME280;50187;50.492;12.134;2023-04-07T02:00:10;97598.50;;;20.50;29.59
20160;BME280;50187;50.492;12.134;2023-04-07T02:03:06;97606.13;;;20.54;29.69
20160;BME280;50187;50.492;12.134;2023-04-07T02:05:56;97608.81;;;20.54;29.75
20160;BME280;50187;50.492;12.134;2023-04-07T02:08:51;97597.88;;;20.56;29.42
20160;BME280;50187;50.492;12.134;2023-04-07T02:11:39;97600.72;;;20.54;29.61
20160;BME280;50187;50.492;12.134;2023-04-07T02:14:26;97606.44;;;20.51;29.46
20160;BME280;50187;50.492;12.134;2023-04-07T02:17:22;97592.28;;;20.49;29.46
20160;BME280;50187;50.492;12.134;2023-04-07T02:20:10;97591.75;;;20.46;29.68
20160;BME280;50187;50.492;12.134;2023-04-07T02:22:56;97582.28;;;20.41;29.74
20160;BME280;50187;50.492;12.134;2023-04-07T02:25:42;97593.28;;;20.48;29.51
20160;BME280;50187;50.492;12.134;2023-04-07T02:28:27;97589.75;;;20.48;29.45
20160;BME280;50187;50.492;12.134;2023-04-07T02:31:12;97588.88;;;20.47;29.47
20160;BME280;50187;50.492;12.134;2023-04-07T02:33:58;97581.81;;;20.46;29.68
20160;BME280;50187;50.492;12.134;2023-04-07T02:36:43;97584.34;;;20.48;29.48
20160;BME280;50187;50.492;12.134;2023-04-07T02:39:28;97584.34;;;20.48;29.58
20160;BME280;50187;50.492;12.134;2023-04-07T02:42:14;97568.94;;;20.40;29.59
20160;BME280;50187;50.492;12.134;2023-04-07T02:44:59;97578.06;;;20.47;29.48
20160;BME280;50187;50.492;12.134;2023-04-07T02:47:45;97592.28;;;20.49;29.43
20160;BME280;50187;50.492;12.134;2023-04-07T02:50:30;97583.31;;;20.49;29.42
20160;BME280;50187;50.492;12.134;2023-04-07T02:53:15;97583.31;;;20.49;29.62
20160;BME280;50187;50.492;12.134;2023-04-07T02:56:00;97581.63;;;20.48;29.51
20160;BME280;50187;50.492;12.134;2023-04-07T02:58:46;97585.16;;;20.48;29.59
20160;BME280;50187;50.492;12.134;2023-04-07T03:01:31;97582.47;;;20.48;29.48
20160;BME280;50187;50.492;12.134;2023-04-07T03:04:18;97579.75;;;20.48;29.39
20160;BME280;50187;50.492;12.134;2023-04-07T03:07:04;97574.38;;;20.48;29.39
20160;BME280;50187;50.492;12.134;2023-04-07T03:09:50;97577.06;;;20.48;29.51
20160;BME280;50187;50.492;12.134;2023-04-07T03:12:36;97573.34;;;20.49;29.39
20160;BME280;50187;50.492;12.134;2023-04-07T03:15:21;97569.78;;;20.49;29.41
20160;BME280;50187;50.492;12.134;2023-04-07T03:18:08;97558.50;;;20.45;29.49
20160;BME280;50187;50.492;12.134;2023-04-07T03:20:53;97567.44;;;20.46;29.51
20160;BME280;50187;50.492;12.134;2023-04-07T03:23:40;97568.97;;;20.48;29.45
20160;BME280;50187;50.492;12.134;2023-04-07T03:26:25;97570.66;;;20.49;29.26
20160;BME280;50187;50.492;12.134;2023-04-07T03:29:12;97566.25;;;20.48;29.32
20160;BME280;50187;50.492;12.134;2023-04-07T03:31:59;97571.81;;;20.47;29.28
20160;BME280;50187;50.492;12.134;2023-04-07T03:34:45;97578.06;;;20.47;29.21
20160;BME280;50187;50.492;12.134;2023-04-07T03:37:31;97573.69;;;20.46;29.24
20160;BME280;50187;50.492;12.134;2023-04-07T03:40:16;97571.13;;;20.45;29.28
20160;BME280;50187;50.492;12.134;2023-04-07T03:43:02;97571.13;;;20.45;29.29
20160;BME280;50187;50.492;12.134;2023-04-07T03:45:48;97565.72;;;20.45;29.13
20160;BME280;50187;50.492;12.134;2023-04-07T03:48:34;97568.28;;;20.46;29.29
20160;BME280;50187;50.492;12.134;2023-04-07T03:51:27;97561.19;;;20.45;29.30
20160;BME280;50187;50.492;12.134;2023-04-07T03:54:15;97565.59;;;20.46;29.25
20160;BME280;50187;50.492;12.134;2023-04-07T03:57:01;97552.38;;;20.43;29.22
20160;BME280;50187;50.492;12.134;2023-04-07T03:59:49;97559.47;;;20.44;29.30
20160;BME280;50187;50.492;12.134;2023-04-07T04:02:35;97562.19;;;20.44;29.41
20160;BME280;50187;50.492;12.134;2023-04-07T04:05:21;97558.66;;;20.44;29.35
20160;BME280;50187;50.492;12.134;2023-04-07T04:08:07;97560.19;;;20.46;29.15
20160;BME280;50187;50.492;12.134;2023-04-07T04:10:56;97569.13;;;20.47;29.20
20160;BME280;50187;50.492;12.134;2023-04-07T04:13:45;97564.72;;;20.46;29.40
20160;BME280;50187;50.492;12.134;2023-04-07T04:16:31;97564.72;;;20.46;29.24
20160;BME280;50187;50.492;12.134;2023-04-07T04:19:21;97567.25;;;20.47;29.25
20160;BME280;50187;50.492;12.134;2023-04-07T04:22:06;97571.00;;;20.46;29.34
20160;BME280;50187;50.492;12.134;2023-04-07T04:24:59;97571.13;;;20.45;29.35
20160;BME280;50187;50.492;12.134;2023-04-07T04:27:45;97571.13;;;20.45;29.23
20160;BME280;50187;50.492;12.134;2023-04-07T04:30:37;97572.81;;;20.46;29.39
20160;BME280;50187;50.492;12.134;2023-04-07T04:33:23;97579.22;;;20.45;29.20
20160;BME280;50187;50.492;12.134;2023-04-07T04:36:13;97564.88;;;20.44;29.22
20160;BME280;50187;50.492;12.134;2023-04-07T04:39:00;97576.41;;;20.46;29.35
20160;BME280;50187;50.492;12.134;2023-04-07T04:41:45;97576.22;;;20.48;29.23
20160;BME280;50187;50.492;12.134;2023-04-07T04:44:31;97569.13;;;20.47;29.17
20160;BME280;50187;50.492;12.134;2023-04-07T04:47:18;97574.88;;;20.44;29.24
20160;BME280;50187;50.492;12.134;2023-04-07T04:50:07;97572.66;;;20.47;29.10
20160;BME280;50187;50.492;12.134;2023-04-07T04:52:55;97575.38;;;20.47;29.26
20160;BME280;50187;50.492;12.134;2023-04-07T04:55:41;97571.00;;;20.46;29.24
20160;BME280;50187;50.492;12.134;2023-04-07T04:58:36;97572.00;;;20.45;29.34
20160;BME280;50187;50.492;12.134;2023-04-07T05:01:22;97569.63;;;20.42;29.20
20160;BME280;50187;50.492;12.134;2023-04-07T05:04:17;97571.47;;;20.41;29.21
20160;BME280;50187;50.492;12.134;2023-04-07T05:07:11;97560.50;;;20.43;29.35
20160;BME280;50187;50.492;12.134;2023-04-07T05:09:57;97566.91;;;20.50;29.36
20160;BME280;50187;50.492;12.134;2023-04-07T05:12:42;97574.03;;;20.51;29.47
20160;BME280;50187;50.492;12.134;2023-04-07T05:15:28;97563.56;;;20.56;29.07
20160;BME280;50187;50.492;12.134;2023-04-07T05:18:14;97565.44;;;20.64;29.17
20160;BME280;50187;50.492;12.134;2023-04-07T05:20:59;97567.13;;;20.65;29.18
20160;BME280;50187;50.492;12.134;2023-04-07T05:23:46;97559.75;;;20.67;29.10
20160;BME280;50187;50.492;12.134;2023-04-07T05:26:32;97569.06;;;20.73;28.97
20160;BME280;50187;50.492;12.134;2023-04-07T05:29:20;97561.44;;;20.76;29.09
20160;BME280;50187;50.492;12.134;2023-04-07T05:32:05;97568.38;;;20.79;28.97
20160;BME280;50187;50.492;12.134;2023-04-07T05:34:51;97563.63;;;20.81;28.75
20160;BME280;50187;50.492;12.134;2023-04-07T05:37:37;97569.75;;;20.83;29.09
20160;BME280;50187;50.492;12.134;2023-04-07T05:40:24;97563.50;;;20.83;28.79
20160;BME280;50187;50.492;12.134;2023-04-07T05:43:09;97567.41;;;20.88;28.73
20160;BME280;50187;50.492;12.134;2023-04-07T05:45:55;97567.41;;;20.88;28.76
20160;BME280;50187;50.492;12.134;2023-04-07T05:48:41;97563.47;;;20.91;28.81
20160;BME280;50187;50.492;12.134;2023-04-07T05:51:26;97563.19;;;20.94;28.63
20160;BME280;50187;50.492;12.134;2023-04-07T05:54:13;97567.22;;;20.98;28.69
20160;BME280;50187;50.492;12.134;2023-04-07T05:56:59;97569.91;;;20.98;28.74
20160;BME280;50187;50.492;12.134;2023-04-07T05:59:46;97571.44;;;21.01;28.76
20160;BME280;50187;50.492;12.134;2023-04-07T06:02:30;97569.09;;;21.06;28.71
20160;BME280;50187;50.492;12.134;2023-04-07T06:05:16;97569.91;;;21.06;28.60
20160;BME280;50187;50.492;12.134;2023-04-07T06:08:02;97562.66;;;21.07;28.51
20160;BME280;50187;50.492;12.134;2023-04-07T06:10:48;97565.19;;;21.08;28.53
20160;BME280;50187;50.492;12.134;2023-04-07T06:13:33;97567.56;;;21.12;28.56
20160;BME280;50187;50.492;12.134;2023-04-07T06:16:18;97568.41;;;21.12;28.51
20160;BME280;50187;50.492;12.134;2023-04-07T06:19:04;97556.56;;;21.13;28.63
20160;BME280;50187;50.492;12.134;2023-04-07T06:21:51;97556.56;;;21.13;28.47
20160;BME280;50187;50.492;12.134;2023-04-07T06:24:36;97564.03;;;21.11;28.57
20160;BME280;50187;50.492;12.134;2023-04-07T06:27:21;97557.56;;;21.12;28.55
20160;BME280;50187;50.492;12.134;2023-04-07T06:30:06;97559.97;;;21.15;28.66
20160;BME280;50187;50.492;12.134;2023-04-07T06:32:52;97558.28;;;21.14;28.67
20160;BME280;50187;50.492;12.134;2023-04-07T06:35:39;97561.81;;;21.15;28.47
20160;BME280;50187;50.492;12.134;2023-04-07T06:38:25;97555.41;;;21.16;28.38
20160;BME280;50187;50.492;12.134;2023-04-07T06:41:10;97552.69;;;21.16;28.53
20160;BME280;50187;50.492;12.134;2023-04-07T06:44:01;97553.53;;;21.16;28.60
20160;BME280;50187;50.492;12.134;2023-04-07T06:46:46;97554.88;;;21.20;28.52
20160;BME280;50187;50.492;12.134;2023-04-07T06:49:34;97547.63;;;21.21;28.35
20160;BME280;50187;50.492;12.134;2023-04-07T06:52:21;97557.59;;;21.20;28.43
20160;BME280;50187;50.492;12.134;2023-04-07T06:55:06;97551.16;;;21.21;28.44
20160;BME280;50187;50.492;12.134;2023-04-07T06:57:52;97556.22;;;21.24;28.37
20160;BME280;50187;50.492;12.134;2023-04-07T07:00:37;97550.81;;;21.24;28.55
20160;BME280;50187;50.492;12.134;2023-04-07T07:03:22;97550.47;;;21.27;28.42
20160;BME280;50187;50.492;12.134;2023-04-07T07:06:08;97550.13;;;21.31;28.60
20160;BME280;50187;50.492;12.134;2023-04-07T07:08:53;97551.81;;;21.32;28.55
20160;BME280;50187;50.492;12.134;2023-04-07T07:11:38;97553.53;;;21.33;28.41
20160;BME280;50187;50.492;12.134;2023-04-07T07:14:24;97555.88;;;21.36;28.34
20160;BME280;50187;50.492;12.134;2023-04-07T07:17:09;97564.53;;;21.39;28.39
20160;BME280;50187;50.492;12.134;2023-04-07T07:19:54;97552.16;;;21.37;28.44
20160;BME280;50187;50.492;12.134;2023-04-07T07:22:39;97559.28;;;21.38;28.36
20160;BME280;50187;50.492;12.134;2023-04-07T07:25:25;97555.53;;;21.39;28.58
20160;BME280;50187;50.492;12.134;2023-04-07T07:28:13;97562.13;;;21.36;28.60
20160;BME280;50187;50.492;12.134;2023-04-07T07:30:58;97559.28;;;21.38;28.59
20160;BME280;50187;50.492;12.134;2023-04-07T07:33:43;97554.34;;;21.41;28.56
20160;BME280;50187;50.492;12.134;2023-04-07T07:36:30;97564.34;;;21.41;28.55
20160;BME280;50187;50.492;12.134;2023-04-07T07:39:16;97556.88;;;21.43;28.36
20160;BME280;50187;50.492;12.134;2023-04-07T07:42:01;97558.59;;;21.44;28.39
20160;BME280;50187;50.492;12.134;2023-04-07T07:44:46;97568.22;;;21.47;28.48
20160;BME280;50187;50.492;12.134;2023-04-07T07:47:32;97560.47;;;21.43;28.56
20160;BME280;50187;50.492;12.134;2023-04-07T07:50:17;97570.41;;;21.43;28.54
20160;BME280;50187;50.492;12.134;2023-04-07T07:53:02;97568.56;;;21.43;28.45
20160;BME280;50187;50.492;12.134;2023-04-07T07:55:48;97566.72;;;21.44;28.45
20160;BME280;50187;50.492;12.134;2023-04-07T07:58:33;97569.41;;;21.44;28.60
20160;BME280;50187;50.492;12.134;2023-04-07T08:01:18;97573.81;;;21.45;28.46
20160;BME280;50187;50.492;12.134;2023-04-07T08:04:04;97575.47;;;21.46;28.57
20160;BME280;50187;50.492;12.134;2023-04-07T08:06:50;97567.53;;;21.44;28.50
20160;BME280;50187;50.492;12.134;2023-04-07T08:09:35;97566.53;;;21.45;28.45
20160;BME280;50187;50.492;12.134;2023-04-07T08:12:20;97570.41;;;21.43;28.39
20160;BME280;50187;50.492;12.134;2023-04-07T08:15:06;97575.00;;;21.42;28.43
20160;BME280;50187;50.492;12.134;2023-04-07T08:17:54;97563.66;;;21.39;28.50
20160;BME280;50187;50.492;12.134;2023-04-07T08:20:40;97573.47;;;21.40;28.63
20160;BME280;50187;50.492;12.134;2023-04-07T08:23:25;97568.06;;;21.40;28.46
20160;BME280;50187;50.492;12.134;2023-04-07T08:26:11;97566.19;;;21.40;28.50
20160;BME280;50187;50.492;12.134;2023-04-07T08:28:55;97566.88;;;21.42;28.75
20160;BME280;50187;50.492;12.134;2023-04-07T08:31:42;97564.53;;;21.39;28.69
20160;BME280;50187;50.492;12.134;2023-04-07T08:34:27;97573.81;;;21.45;28.71
20160;BME280;50187;50.492;12.134;2023-04-07T08:37:12;97568.72;;;21.50;28.46
20160;BME280;50187;50.492;12.134;2023-04-07T08:39:59;97573.66;;;21.55;28.52
20160;BME280;50187;50.492;12.134;2023-04-07T08:42:47;97578.91;;;21.56;28.35
20160;BME280;50187;50.492;12.134;2023-04-07T08:45:39;97578.22;;;21.63;28.28
20160;BME280;50187;50.492;12.134;2023-04-07T08:48:28;97567.91;;;21.66;28.54
20160;BME280;50187;50.492;12.134;2023-04-07T08:51:30;97572.44;;;21.74;28.53
20160;BME280;50187;50.492;12.134;2023-04-07T08:54:18;97564.66;;;21.71;28.53
20160;BME280;50187;50.492;12.134;2023-04-07T08:57:06;97570.06;;;21.71;28.57
20160;BME280;50187;50.492;12.134;2023-04-07T08:59:52;97567.19;;;21.72;28.56
20160;BME280;50187;50.492;12.134;2023-04-07T09:02:42;97568.00;;;21.81;28.61
20160;BME280;50187;50.492;12.134;2023-04-07T09:05:29;97559.72;;;21.83;28.47
20160;BME280;50187;50.492;12.134;2023-04-07T09:08:14;97567.72;;;21.76;28.63
20160;BME280;50187;50.492;12.134;2023-04-07T09:10:59;97569.41;;;21.69;28.42
20160;BME280;50187;50.492;12.134;2023-04-07T09:13:44;97564.47;;;21.81;28.52
20160;BME280;50187;50.492;12.134;2023-04-07T09:16:30;97557.16;;;21.89;28.47
20160;BME280;50187;50.492;12.134;2023-04-07T09:19:15;97550.56;;;21.92;28.16
20160;BME280;50187;50.492;12.134;2023-04-07T09:22:00;97553.75;;;21.95;27.77
20160;BME280;50187;50.492;12.134;2023-04-07T09:24:46;97546.31;;;21.98;27.84
20160;BME280;50187;50.492;12.134;2023-04-07T09:27:31;97546.97;;;22.00;27.48
20160;BME280;50187;50.492;12.134;2023-04-07T09:30:16;97548.66;;;22.01;27.60
20160;BME280;50187;50.492;12.134;2023-04-07T09:33:01;97543.25;;;22.01;27.66
20160;BME280;50187;50.492;12.134;2023-04-07T09:35:51;97545.94;;;22.01;27.44
20160;BME280;50187;50.492;12.134;2023-04-07T09:38:40;97545.59;;;22.04;27.56
20160;BME280;50187;50.492;12.134;2023-04-07T09:41:26;97548.13;;;22.05;27.25
20160;BME280;50187;50.492;12.134;2023-04-07T09:44:12;97551.69;;;22.06;27.41
20160;BME280;50187;50.492;12.134;2023-04-07T09:46:58;97545.59;;;22.04;27.22
20160;BME280;50187;50.492;12.134;2023-04-07T09:49:53;97548.31;;;22.04;27.34
20160;BME280;50187;50.492;12.134;2023-04-07T09:52:49;97534.59;;;22.05;27.09
20160;BME280;50187;50.492;12.134;2023-04-07T09:55:38;97540.00;;;22.05;27.24
20160;BME280;50187;50.492;12.134;2023-04-07T09:58:25;97533.56;;;22.06;27.18
20160;BME280;50187;50.492;12.134;2023-04-07T10:01:10;97537.16;;;22.07;27.17
20160;BME280;50187;50.492;12.134;2023-04-07T10:03:57;97529.50;;;22.10;26.93
20160;BME280;50187;50.492;12.134;2023-04-07T10:06:43;97531.19;;;22.11;26.86
20160;BME280;50187;50.492;12.134;2023-04-07T10:09:29;97522.56;;;22.08;27.00
20160;BME280;50187;50.492;12.134;2023-04-07T10:12:15;97524.91;;;22.11;27.02
20160;BME280;50187;50.492;12.134;2023-04-07T10:15:00;97520.88;;;22.07;27.02
20160;BME280;50187;50.492;12.134;2023-04-07T10:17:46;97528.13;;;22.15;26.66
20160;BME280;50187;50.492;12.134;2023-04-07T10:20:39;97530.66;;;22.16;26.73
20160;BME280;50187;50.492;12.134;2023-04-07T10:23:36;97524.59;;;22.14;26.80
20160;BME280;50187;50.492;12.134;2023-04-07T10:26:27;97524.88;;;22.19;26.84
20160;BME280;50187;50.492;12.134;2023-04-07T10:29:14;97519.81;;;22.16;26.64
20160;BME280;50187;50.492;12.134;2023-04-07T10:32:01;97517.47;;;22.13;26.67
20160;BME280;50187;50.492;12.134;2023-04-07T10:37:33;97520.03;;;22.06;25.13
20160;BME280;50187;50.492;12.134;2023-04-07T10:43:05;97520.91;;;21.99;23.78
20160;BME280;50187;50.492;12.134;2023-04-07T10:45:54;97516.88;;;21.94;23.75
20160;BME280;50187;50.492;12.134;2023-04-07T10:48:41;97518.25;;;21.90;23.77
20160;BME280;50187;50.492;12.134;2023-04-07T10:51:26;97520.25;;;21.88;23.54
20160;BME280;50187;50.492;12.134;2023-04-07T10:54:22;97533.81;;;21.88;23.48
20160;BME280;50187;50.492;12.134;2023-04-07T10:57:13;97518.09;;;21.84;23.40
20160;BME280;50187;50.492;12.134;2023-04-07T11:02:56;97510.84;;;21.76;23.27
20160;BME280;50187;50.492;12.134;2023-04-07T11:05:41;97515.41;;;21.75;22.86
20160;BME280;50187;50.492;12.134;2023-04-07T11:08:46;97512.22;;;21.72;22.77
20160;BME280;50187;50.492;12.134;2023-04-07T11:11:35;97515.41;;;21.75;22.67
20160;BME280;50187;50.492;12.134;2023-04-07T11:14:27;97514.75;;;21.73;22.93
20160;BME280;50187;50.492;12.134;2023-04-07T11:17:16;97516.59;;;21.73;22.95
20160;BME280;50187;50.492;12.134;2023-04-07T11:20:01;97504.94;;;21.72;22.39
20160;BME280;50187;50.492;12.134;2023-04-07T11:22:59;97506.28;;;21.68;22.88
20160;BME280;50187;50.492;12.134;2023-04-07T11:25:46;97512.56;;;21.69;22.63
20160;BME280;50187;50.492;12.134;2023-04-07T11:28:33;97505.81;;;21.65;22.68
20160;BME280;50187;50.492;12.134;2023-04-07T11:31:27;97499.72;;;21.63;22.73
20160;BME280;50187;50.492;12.134;2023-04-07T11:34:13;97505.47;;;21.59;22.89
20160;BME280;50187;50.492;12.134;2023-04-07T11:37:20;97505.84;;;21.56;22.93
20160;BME280;50187;50.492;12.134;2023-04-07T11:40:06;97505.13;;;21.54;22.61
20160;BME280;50187;50.492;12.134;2023-04-07T11:42:52;97502.25;;;21.56;22.95
20160;BME280;50187;50.492;12.134;2023-04-07T11:45:37;97501.91;;;21.51;22.96
20160;BME280;50187;50.492;12.134;2023-04-07T11:48:30;97488.75;;;21.48;22.88
20160;BME280;50187;50.492;12.134;2023-04-07T11:51:20;97492.63;;;21.45;22.57
20160;BME280;50187;50.492;12.134;2023-04-07T11:54:07;97487.72;;;21.40;22.76
20160;BME280;50187;50.492;12.134;2023-04-07T11:56:53;97487.88;;;21.39;22.93
20160;BME280;50187;50.492;12.134;2023-04-07T11:59:40;97496.53;;;21.34;22.95
20160;BME280;50187;50.492;12.134;2023-04-07T12:02:33;97484.53;;;21.28;22.49
20160;BME280;50187;50.492;12.134;2023-04-07T12:05:18;97488.25;;;21.27;22.72
20160;BME280;50187;50.492;12.134;2023-04-07T12:08:03;97481.19;;;21.26;22.59
20160;BME280;50187;50.492;12.134;2023-04-07T12:11:01;97496.19;;;21.29;22.76
20160;BME280;50187;50.492;12.134;2023-04-07T12:13:48;97489.13;;;21.20;23.02
20160;BME280;50187;50.492;12.134;2023-04-07T12:16:37;97487.06;;;21.22;22.77
20160;BME280;50187;50.492;12.134;2023-04-07T12:19:25;97481.84;;;21.20;22.92
20160;BME280;50187;50.492;12.134;2023-04-07T12:22:12;97479.47;;;21.17;22.97
20160;BME280;50187;50.492;12.134;2023-04-07T12:24:57;97487.94;;;21.14;22.91
20160;BME280;50187;50.492;12.134;2023-04-07T12:27:42;97485.59;;;21.11;23.42
20160;BME280;50187;50.492;12.134;2023-04-07T12:30:28;97486.94;;;21.07;23.20
20160;BME280;50187;50.492;12.134;2023-04-07T12:33:13;97478.13;;;21.05;23.24
20160;BME280;50187;50.492;12.134;2023-04-07T12:35:59;97483.91;;;21.02;23.48
20160;BME280;50187;50.492;12.134;2023-04-07T12:38:44;97481.38;;;21.00;23.63
20160;BME280;50187;50.492;12.134;2023-04-07T12:41:30;97479.66;;;20.99;23.81
20160;BME280;50187;50.492;12.134;2023-04-07T12:44:16;97477.47;;;20.95;23.40
20160;BME280;50187;50.492;12.134;2023-04-07T12:47:01;97475.13;;;20.91;23.40
20160;BME280;50187;50.492;12.134;2023-04-07T12:49:46;97480.19;;;20.86;23.05
20160;BME280;50187;50.492;12.134;2023-04-07T12:52:34;97463.13;;;20.78;23.81
20160;BME280;50187;50.492;12.134;2023-04-07T12:55:20;97483.75;;;20.79;23.71
20160;BME280;50187;50.492;12.134;2023-04-07T12:58:06;97483.22;;;20.75;24.02
20160;BME280;50187;50.492;12.134;2023-04-07T13:00:51;97487.97;;;20.73;23.54
20160;BME280;50187;50.492;12.134;2023-04-07T13:03:37;97474.75;;;20.70;23.59
20160;BME280;50187;50.492;12.134;2023-04-07T13:06:22;97484.09;;;20.67;24.36
20160;BME280;50187;50.492;12.134;2023-04-07T13:09:08;97488.28;;;20.62;24.23
20160;BME280;50187;50.492;12.134;2023-04-07T13:11:53;97485.69;;;20.60;24.23
20160;BME280;50187;50.492;12.134;2023-04-07T13:14:39;97481.81;;;20.54;24.02
20160;BME280;50187;50.492;12.134;2023-04-07T13:17:41;97487.56;;;20.51;24.10
20160;BME280;50187;50.492;12.134;2023-04-07T13:20:27;97485.19;;;20.48;24.35
20160;BME280;50187;50.492;12.134;2023-04-07T13:23:13;97486.91;;;20.49;24.21
20160;BME280;50187;50.492;12.134;2023-04-07T13:25:59;97488.06;;;20.47;24.35
20160;BME280;50187;50.492;12.134;2023-04-07T13:28:44;97479.44;;;20.43;24.33
20160;BME280;50187;50.492;12.134;2023-04-07T13:31:30;97485.19;;;20.40;24.11
20160;BME280;50187;50.492;12.134;2023-04-07T13:34:15;97482.81;;;20.37;24.30
20160;BME280;50187;50.492;12.134;2023-04-07T13:37:02;97487.56;;;20.35;23.97
20160;BME280;50187;50.492;12.134;2023-04-07T13:39:47;97469.97;;;20.31;24.30
20160;BME280;50187;50.492;12.134;2023-04-07T13:42:33;97476.72;;;20.27;24.27
20160;BME280;50187;50.492;12.134;2023-04-07T13:45:20;97468.78;;;20.17;24.33
20160;BME280;50187;50.492;12.134;2023-04-07T13:48:05;97479.06;;;20.21;24.25
20160;BME280;50187;50.492;12.134;2023-04-07T13:50:50;97474.00;;;20.18;24.31
20160;BME280;50187;50.492;12.134;2023-04-07T13:53:35;97476.34;;;20.13;24.47
20160;BME280;50187;50.492;12.134;2023-04-07T13:56:20;97469.59;;;20.17;24.50
20160;BME280;50187;50.492;12.134;2023-04-07T13:59:06;97465.19;;;20.16;24.44
20160;BME280;50187;50.492;12.134;2023-04-07T14:01:51;97468.94;;;20.15;24.60
20160;BME280;50187;50.492;12.134;2023-04-07T14:04:36;97469.94;;;20.14;24.69
20160;BME280;50187;50.492;12.134;2023-04-07T14:07:22;97464.00;;;20.11;24.67
20160;BME280;50187;50.492;12.134;2023-04-07T14:10:07;97470.59;;;20.08;24.71
20160;BME280;50187;50.492;12.134;2023-04-07T14:12:55;97473.59;;;20.05;24.83
20160;BME280;50187;50.492;12.134;2023-04-07T14:15:40;97480.34;;;20.01;24.67
20160;BME280;50187;50.492;12.134;2023-04-07T14:18:25;97480.00;;;19.96;24.77
20160;BME280;50187;50.492;12.134;2023-04-07T14:21:11;97470.91;;;19.97;25.12
20160;BME280;50187;50.492;12.134;2023-04-07T14:23:57;97469.22;;;19.96;25.03
20160;BME280;50187;50.492;12.134;2023-04-07T14:26:42;97479.47;;;19.92;25.08
20160;BME280;50187;50.492;12.134;2023-04-07T14:29:28;97495.19;;;19.88;25.09
20160;BME280;50187;50.492;12.134;2023-04-07T14:32:13;97478.59;;;19.83;25.28
20160;BME280;50187;50.492;12.134;2023-04-07T14:34:59;97491.09;;;19.84;25.12
20160;BME280;50187;50.492;12.134;2023-04-07T14:37:45;97484.34;;;19.80;25.12
20160;BME280;50187;50.492;12.134;2023-04-07T14:40:30;97482.94;;;19.76;25.04
20160;BME280;50187;50.492;12.134;2023-04-07T14:43:15;97480.91;;;19.70;25.12
20160;BME280;50187;50.492;12.134;2023-04-07T14:46:00;97486.44;;;19.68;25.29
20160;BME280;50187;50.492;12.134;2023-04-07T14:48:45;97485.75;;;19.66;25.17